sensor_id;sensor_type;location;lat;lon;timestamp;temperature;humidity
69082;DHT22;56184;51.986;5.760;2023-02-15T00:01:44;2.70;94.90
69082;DHT22;56184;51.986;5.760;2023-02-15T00:04:12;2.70;94.90
69082;DHT22;56184;51.986;5.760;2023-02-15T00:06:38;2.60;94.90
69082;DHT22;56184;51.986;5.760;2023-02-15T00:09:04;2.60;95.00
69082;DHT22;56184;51.986;5.760;2023-02-15T00:11:30;2.60;95.00
69082;DHT22;56184;51.986;5.760;2023-02-15T00:14:17;2.50;95.00
69082;DHT22;56184;51.986;5.760;2023-02-15T00:16:44;2.50;95.10
69082;DHT22;56184;51.986;5.760;2023-02-15T00:19:11;2.40;95.30
69082;DHT22;56184;51.986;5.760;2023-02-15T00:21:38;2.40;95.30
69082;DHT22;56184;51.986;5.760;2023-02-15T00:24:06;2.40;95.30
69082;DHT22;56184;51.986;5.760;2023-02-15T00:26:32;2.40;95.30
69082;DHT22;56184;51.986;5.760;2023-02-15T00:28:59;2.30;95.50
69082;DHT22;56184;51.986;5.760;2023-02-15T00:31:25;2.30;95.50
69082;DHT22;56184;51.986;5.760;2023-02-15T00:33:51;2.20;95.50
69082;DHT22;56184;51.986;5.760;2023-02-15T00:36:17;2.20;95.60
69082;DHT22;56184;51.986;5.760;2023-02-15T00:38:42;2.20;95.50
69082;DHT22;56184;51.986;5.760;2023-02-15T00:41:09;2.20;95.60
69082;DHT22;56184;51.986;5.760;2023-02-15T00:43:35;2.10;95.60
69082;DHT22;56184;51.986;5.760;2023-02-15T00:46:02;2.10;95.70
69082;DHT22;56184;51.986;5.760;2023-02-15T00:48:29;2.10;95.90
69082;DHT22;56184;51.986;5.760;2023-02-15T00:50:56;2.10;96.00
69082;DHT22;56184;51.986;5.760;2023-02-15T00:53:23;2.00;96.10
69082;DHT22;56184;51.986;5.760;2023-02-15T00:55:48;2.00;96.20
69082;DHT22;56184;51.986;5.760;2023-02-15T00:58:15;2.00;96.20
69082;DHT22;56184;51.986;5.760;2023-02-15T01:00:43;1.90;96.30
69082;DHT22;56184;51.986;5.760;2023-02-15T01:03:09;1.90;96.40
69082;DHT22;56184;51.986;5.760;2023-02-15T01:05:34;1.80;96.50
69082;DHT22;56184;51.986;5.760;2023-02-15T01:08:00;1.80;96.50
69082;DHT22;56184;51.986;5.760;2023-02-15T01:10:27;1.80;96.50
69082;DHT22;56184;51.986;5.760;2023-02-15T01:12:54;1.80;96.50
69082;DHT22;56184;51.986;5.760;2023-02-15T01:15:19;1.70;96.60
69082;DHT22;56184;51.986;5.760;2023-02-15T01:17:45;1.70;96.60
69082;DHT22;56184;51.986;5.760;2023-02-15T01:20:17;1.70;96.70
69082;DHT22;56184;51.986;5.760;2023-02-15T01:22:43;1.60;96.70
69082;DHT22;56184;51.986;5.760;2023-02-15T01:25:08;1.60;96.70
69082;DHT22;56184;51.986;5.760;2023-02-15T01:27:34;1.60;96.70
69082;DHT22;56184;51.986;5.760;2023-02-15T01:29:59;1.60;96.70
69082;DHT22;56184;51.986;5.760;2023-02-15T01:32:25;1.60;96.90
69082;DHT22;56184;51.986;5.760;2023-02-15T01:34:52;1.50;97.00
69082;DHT22;56184;51.986;5.760;2023-02-15T01:37:17;1.50;96.90
69082;DHT22;56184;51.986;5.760;2023-02-15T01:39:43;1.50;96.80
69082;DHT22;56184;51.986;5.760;2023-02-15T01:42:12;1.50;97.40
69082;DHT22;56184;51.986;5.760;2023-02-15T01:44:47;1.50;97.20
69082;DHT22;56184;51.986;5.760;2023-02-15T01:47:17;1.40;97.20
69082;DHT22;56184;51.986;5.760;2023-02-15T01:49:45;1.40;97.30
69082;DHT22;56184;51.986;5.760;2023-02-15T01:52:14;1.40;97.40
69082;DHT22;56184;51.986;5.760;2023-02-15T01:54:44;1.40;97.50
69082;DHT22;56184;51.986;5.760;2023-02-15T01:57:16;1.40;97.50
69082;DHT22;56184;51.986;5.760;2023-02-15T01:59:45;1.30;97.50
69082;DHT22;56184;51.986;5.760;2023-02-15T02:02:13;1.30;97.50
69082;DHT22;56184;51.986;5.760;2023-02-15T02:04:56;1.30;97.50
69082;DHT22;56184;51.986;5.760;2023-02-15T02:07:27;1.30;97.40
69082;DHT22;56184;51.986;5.760;2023-02-15T02:09:53;1.20;97.40
69082;DHT22;56184;51.986;5.760;2023-02-15T02:12:19;1.20;97.30
69082;DHT22;56184;51.986;5.760;2023-02-15T02:14:48;1.20;97.50
69082;DHT22;56184;51.986;5.760;2023-02-15T02:24:16;1.10;97.80
69082;DHT22;56184;51.986;5.760;2023-02-15T02:26:36;1.10;97.90
69082;DHT22;56184;51.986;5.760;2023-02-15T02:29:40;1.10;98.00
69082;DHT22;56184;51.986;5.760;2023-02-15T02:35:16;1.10;97.60
69082;DHT22;56184;51.986;5.760;2023-02-15T02:43:52;1.00;97.80
69082;DHT22;56184;51.986;5.760;2023-02-15T02:46:25;1.00;97.80
69082;DHT22;56184;51.986;5.760;2023-02-15T02:48:52;0.90;97.90
69082;DHT22;56184;51.986;5.760;2023-02-15T02:51:18;0.90;98.00
69082;DHT22;56184;51.986;5.760;2023-02-15T02:53:49;0.80;98.10
69082;DHT22;56184;51.986;5.760;2023-02-15T02:56:26;0.80;98.30
69082;DHT22;56184;51.986;5.760;2023-02-15T02:59:01;0.80;98.30
69082;DHT22;56184;51.986;5.760;2023-02-15T03:01:36;0.80;98.30
69082;DHT22;56184;51.986;5.760;2023-02-15T03:04:11;0.80;98.50
69082;DHT22;56184;51.986;5.760;2023-02-15T03:06:43;0.80;98.40
69082;DHT22;56184;51.986;5.760;2023-02-15T03:09:15;0.80;98.30
69082;DHT22;56184;51.986;5.760;2023-02-15T03:11:43;0.80;98.40
69082;DHT22;56184;51.986;5.760;2023-02-15T03:14:10;0.70;98.30
69082;DHT22;56184;51.986;5.760;2023-02-15T03:16:39;0.70;98.40
69082;DHT22;56184;51.986;5.760;2023-02-15T03:19:07;0.70;98.80
69082;DHT22;56184;51.986;5.760;2023-02-15T03:21:34;0.70;98.50
69082;DHT22;56184;51.986;5.760;2023-02-15T03:24:24;0.70;98.60
69082;DHT22;56184;51.986;5.760;2023-02-15T03:26:52;0.70;98.60
69082;DHT22;56184;51.986;5.760;2023-02-15T03:29:21;0.70;98.70
69082;DHT22;56184;51.986;5.760;2023-02-15T03:31:50;0.60;98.80
69082;DHT22;56184;51.986;5.760;2023-02-15T03:34:19;0.60;98.90
69082;DHT22;56184;51.986;5.760;2023-02-15T03:37:03;0.60;98.90
69082;DHT22;56184;51.986;5.760;2023-02-15T03:39:37;0.60;99.00
69082;DHT22;56184;51.986;5.760;2023-02-15T03:42:22;0.60;98.90
69082;DHT22;56184;51.986;5.760;2023-02-15T03:45:05;0.60;99.10
69082;DHT22;56184;51.986;5.760;2023-02-15T03:47:39;0.50;99.00
69082;DHT22;56184;51.986;5.760;2023-02-15T03:50:22;0.50;98.90
69082;DHT22;56184;51.986;5.760;2023-02-15T03:53:10;0.50;98.90
69082;DHT22;56184;51.986;5.760;2023-02-15T03:55:37;0.50;99.00
69082;DHT22;56184;51.986;5.760;2023-02-15T03:58:03;0.50;99.10
69082;DHT22;56184;51.986;5.760;2023-02-15T04:00:58;0.50;99.20
69082;DHT22;56184;51.986;5.760;2023-02-15T04:03:47;0.50;99.30
69082;DHT22;56184;51.986;5.760;2023-02-15T04:06:15;0.50;99.50
69082;DHT22;56184;51.986;5.760;2023-02-15T04:08:40;0.40;99.50
69082;DHT22;56184;51.986;5.760;2023-02-15T04:11:25;0.40;99.40
69082;DHT22;56184;51.986;5.760;2023-02-15T04:13:50;0.40;99.30
69082;DHT22;56184;51.986;5.760;2023-02-15T04:16:22;0.30;99.30
69082;DHT22;56184;51.986;5.760;2023-02-15T04:18:48;0.40;99.40
69082;DHT22;56184;51.986;5.760;2023-02-15T04:21:32;0.30;99.40
69082;DHT22;56184;51.986;5.760;2023-02-15T04:24:16;0.30;99.40
69082;DHT22;56184;51.986;5.760;2023-02-15T04:27:00;0.30;99.50
69082;DHT22;56184;51.986;5.760;2023-02-15T04:29:27;0.30;99.60
69082;DHT22;56184;51.986;5.760;2023-02-15T04:31:53;0.30;99.70
69082;DHT22;56184;51.986;5.760;2023-02-15T04:34:19;0.30;99.70
69082;DHT22;56184;51.986;5.760;2023-02-15T04:36:45;0.30;99.90
69082;DHT22;56184;51.986;5.760;2023-02-15T04:39:15;0.30;99.90
69082;DHT22;56184;51.986;5.760;2023-02-15T04:41:41;0.20;99.90
69082;DHT22;56184;51.986;5.760;2023-02-15T04:44:07;0.30;99.90
69082;DHT22;56184;51.986;5.760;2023-02-15T04:46:35;0.30;99.90
69082;DHT22;56184;51.986;5.760;2023-02-15T04:49:01;0.20;99.90
69082;DHT22;56184;51.986;5.760;2023-02-15T04:51:27;0.30;99.90
69082;DHT22;56184;51.986;5.760;2023-02-15T04:53:52;0.30;99.90
69082;DHT22;56184;51.986;5.760;2023-02-15T04:56:19;0.30;99.90
69082;DHT22;56184;51.986;5.760;2023-02-15T04:58:44;0.30;99.90
69082;DHT22;56184;51.986;5.760;2023-02-15T05:01:10;0.30;99.90
69082;DHT22;56184;51.986;5.760;2023-02-15T05:03:36;0.30;99.90
69082;DHT22;56184;51.986;5.760;2023-02-15T05:06:02;0.30;99.90
69082;DHT22;56184;51.986;5.760;2023-02-15T05:08:28;0.30;99.90
69082;DHT22;56184;51.986;5.760;2023-02-15T05:10:54;0.30;99.90
69082;DHT22;56184;51.986;5.760;2023-02-15T05:13:19;0.40;99.90
69082;DHT22;56184;51.986;5.760;2023-02-15T05:15:49;0.40;99.90
69082;DHT22;56184;51.986;5.760;2023-02-15T05:18:15;0.40;99.90
69082;DHT22;56184;51.986;5.760;2023-02-15T05:20:41;0.30;99.90
69082;DHT22;56184;51.986;5.760;2023-02-15T05:23:07;0.30;99.90
69082;DHT22;56184;51.986;5.760;2023-02-15T05:25:33;0.30;99.90
69082;DHT22;56184;51.986;5.760;2023-02-15T05:28:16;0.30;99.90
69082;DHT22;56184;51.986;5.760;2023-02-15T05:30:49;0.30;99.90
69082;DHT22;56184;51.986;5.760;2023-02-15T05:33:16;0.20;99.90
69082;DHT22;56184;51.986;5.760;2023-02-15T05:35:42;0.20;99.90
69082;DHT22;56184;51.986;5.760;2023-02-15T05:38:07;0.20;99.90
69082;DHT22;56184;51.986;5.760;2023-02-15T05:40:33;0.30;99.90
69082;DHT22;56184;51.986;5.760;2023-02-15T05:42:59;0.20;99.90
69082;DHT22;56184;51.986;5.760;2023-02-15T05:45:24;0.20;99.90
69082;DHT22;56184;51.986;5.760;2023-02-15T05:47:50;0.30;99.90
69082;DHT22;56184;51.986;5.760;2023-02-15T05:50:15;0.30;99.90
69082;DHT22;56184;51.986;5.760;2023-02-15T05:52:41;0.30;99.90
69082;DHT22;56184;51.986;5.760;2023-02-15T05:55:07;0.30;99.90
69082;DHT22;56184;51.986;5.760;2023-02-15T05:57:34;0.30;99.90
69082;DHT22;56184;51.986;5.760;2023-02-15T06:00:00;0.30;99.90
69082;DHT22;56184;51.986;5.760;2023-02-15T06:02:26;0.30;99.90
69082;DHT22;56184;51.986;5.760;2023-02-15T06:04:52;0.30;99.90
69082;DHT22;56184;51.986;5.760;2023-02-15T06:07:17;0.30;99.90
69082;DHT22;56184;51.986;5.760;2023-02-15T06:09:43;0.30;99.90
69082;DHT22;56184;51.986;5.760;2023-02-15T06:12:08;0.20;99.90
69082;DHT22;56184;51.986;5.760;2023-02-15T06:14:34;0.20;99.90
69082;DHT22;56184;51.986;5.760;2023-02-15T06:16:59;0.20;99.90
69082;DHT22;56184;51.986;5.760;2023-02-15T06:19:25;0.20;99.90
69082;DHT22;56184;51.986;5.760;2023-02-15T06:21:51;0.20;99.90
69082;DHT22;56184;51.986;5.760;2023-02-15T06:24:16;0.20;99.90
69082;DHT22;56184;51.986;5.760;2023-02-15T06:26:43;0.20;99.90
69082;DHT22;56184;51.986;5.760;2023-02-15T06:29:08;0.20;99.90
69082;DHT22;56184;51.986;5.760;2023-02-15T06:31:34;0.20;99.90
69082;DHT22;56184;51.986;5.760;2023-02-15T06:34:00;0.20;99.90
69082;DHT22;56184;51.986;5.760;2023-02-15T06:36:29;0.20;99.90
69082;DHT22;56184;51.986;5.760;2023-02-15T06:38:55;0.20;99.90
69082;DHT22;56184;51.986;5.760;2023-02-15T06:41:21;0.20;99.90
69082;DHT22;56184;51.986;5.760;2023-02-15T06:43:46;0.20;99.90
69082;DHT22;56184;51.986;5.760;2023-02-15T06:46:12;0.30;99.90
69082;DHT22;56184;51.986;5.760;2023-02-15T06:48:38;0.30;99.90
69082;DHT22;56184;51.986;5.760;2023-02-15T06:51:03;0.30;99.90
69082;DHT22;56184;51.986;5.760;2023-02-15T06:53:29;0.30;99.90
69082;DHT22;56184;51.986;5.760;2023-02-15T06:56:08;0.30;99.90
69082;DHT22;56184;51.986;5.760;2023-02-15T06:58:36;0.30;99.90
69082;DHT22;56184;51.986;5.760;2023-02-15T07:01:02;0.40;99.90
69082;DHT22;56184;51.986;5.760;2023-02-15T07:03:28;0.40;99.90
69082;DHT22;56184;51.986;5.760;2023-02-15T07:05:55;0.50;99.90
69082;DHT22;56184;51.986;5.760;2023-02-15T07:08:21;0.50;99.90
69082;DHT22;56184;51.986;5.760;2023-02-15T07:10:48;0.40;99.90
69082;DHT22;56184;51.986;5.760;2023-02-15T07:13:14;0.50;99.90
69082;DHT22;56184;51.986;5.760;2023-02-15T07:15:40;0.50;99.90
69082;DHT22;56184;51.986;5.760;2023-02-15T07:18:06;0.50;99.90
69082;DHT22;56184;51.986;5.760;2023-02-15T07:20:32;0.50;99.90
69082;DHT22;56184;51.986;5.760;2023-02-15T07:22:59;0.60;99.90
69082;DHT22;56184;51.986;5.760;2023-02-15T07:25:25;0.60;99.90
69082;DHT22;56184;51.986;5.760;2023-02-15T07:28:01;0.60;99.90
69082;DHT22;56184;51.986;5.760;2023-02-15T07:30:28;0.60;99.90
69082;DHT22;56184;51.986;5.760;2023-02-15T07:32:57;0.70;99.90
69082;DHT22;56184;51.986;5.760;2023-02-15T07:38:14;0.80;99.90
69082;DHT22;56184;51.986;5.760;2023-02-15T07:40:39;0.80;99.90
69082;DHT22;56184;51.986;5.760;2023-02-15T07:43:05;0.80;99.90
69082;DHT22;56184;51.986;5.760;2023-02-15T07:45:31;0.80;99.90
69082;DHT22;56184;51.986;5.760;2023-02-15T07:47:56;0.70;99.90
69082;DHT22;56184;51.986;5.760;2023-02-15T07:50:22;0.80;99.90
69082;DHT22;56184;51.986;5.760;2023-02-15T07:52:47;0.90;99.90
69082;DHT22;56184;51.986;5.760;2023-02-15T07:55:13;1.00;99.90
69082;DHT22;56184;51.986;5.760;2023-02-15T07:57:43;1.00;99.90
69082;DHT22;56184;51.986;5.760;2023-02-15T08:00:10;1.00;99.90
69082;DHT22;56184;51.986;5.760;2023-02-15T08:02:37;1.10;99.90
69082;DHT22;56184;51.986;5.760;2023-02-15T08:05:02;1.10;99.90
69082;DHT22;56184;51.986;5.760;2023-02-15T08:07:28;1.20;99.90
69082;DHT22;56184;51.986;5.760;2023-02-15T08:09:54;1.30;99.90
69082;DHT22;56184;51.986;5.760;2023-02-15T08:12:19;1.40;99.90
69082;DHT22;56184;51.986;5.760;2023-02-15T08:14:45;1.50;99.90
69082;DHT22;56184;51.986;5.760;2023-02-15T08:17:10;1.60;99.90
69082;DHT22;56184;51.986;5.760;2023-02-15T08:19:36;1.80;99.90
69082;DHT22;56184;51.986;5.760;2023-02-15T08:22:07;2.00;99.90
69082;DHT22;56184;51.986;5.760;2023-02-15T08:24:35;2.00;99.90
69082;DHT22;56184;51.986;5.760;2023-02-15T08:27:05;2.10;99.90
69082;DHT22;56184;51.986;5.760;2023-02-15T08:29:32;2.20;99.90
69082;DHT22;56184;51.986;5.760;2023-02-15T08:32:08;2.30;99.90
69082;DHT22;56184;51.986;5.760;2023-02-15T08:34:38;2.40;99.90
69082;DHT22;56184;51.986;5.760;2023-02-15T08:37:04;2.50;99.90
69082;DHT22;56184;51.986;5.760;2023-02-15T08:39:31;2.60;99.90
69082;DHT22;56184;51.986;5.760;2023-02-15T08:41:56;2.70;99.90
69082;DHT22;56184;51.986;5.760;2023-02-15T08:44:22;2.80;99.90
69082;DHT22;56184;51.986;5.760;2023-02-15T08:46:48;2.80;99.90
69082;DHT22;56184;51.986;5.760;2023-02-15T08:49:20;2.90;99.90
69082;DHT22;56184;51.986;5.760;2023-02-15T08:51:46;2.90;99.90
69082;DHT22;56184;51.986;5.760;2023-02-15T08:54:14;3.10;99.90
69082;DHT22;56184;51.986;5.760;2023-02-15T08:56:42;3.20;99.90
69082;DHT22;56184;51.986;5.760;2023-02-15T08:59:14;3.20;99.90
69082;DHT22;56184;51.986;5.760;2023-02-15T09:01:41;3.30;99.90
69082;DHT22;56184;51.986;5.760;2023-02-15T09:04:08;3.40;99.90
69082;DHT22;56184;51.986;5.760;2023-02-15T09:06:39;3.50;99.90
69082;DHT22;56184;51.986;5.760;2023-02-15T09:09:05;3.60;99.90
69082;DHT22;56184;51.986;5.760;2023-02-15T09:11:34;3.70;99.90
69082;DHT22;56184;51.986;5.760;2023-02-15T09:14:09;3.80;99.90
69082;DHT22;56184;51.986;5.760;2023-02-15T09:16:36;3.90;99.90
69082;DHT22;56184;51.986;5.760;2023-02-15T09:19:03;4.00;99.90
69082;DHT22;56184;51.986;5.760;2023-02-15T09:21:36;4.10;99.90
69082;DHT22;56184;51.986;5.760;2023-02-15T09:24:05;4.20;99.90
69082;DHT22;56184;51.986;5.760;2023-02-15T09:26:32;4.40;99.70
69082;DHT22;56184;51.986;5.760;2023-02-15T09:29:00;4.40;99.90
69082;DHT22;56184;51.986;5.760;2023-02-15T09:31:30;4.50;99.90
69082;DHT22;56184;51.986;5.760;2023-02-15T09:33:59;4.50;99.90
69082;DHT22;56184;51.986;5.760;2023-02-15T09:36:34;4.50;99.90
69082;DHT22;56184;51.986;5.760;2023-02-15T09:39:23;4.60;99.90
69082;DHT22;56184;51.986;5.760;2023-02-15T10:06:28;5.80;97.90
69082;DHT22;56184;51.986;5.760;2023-02-15T10:22:47;6.90;95.90
69082;DHT22;56184;51.986;5.760;2023-02-15T10:28:00;7.50;99.90
69082;DHT22;56184;51.986;5.760;2023-02-15T10:30:47;7.50;94.40
69082;DHT22;56184;51.986;5.760;2023-02-15T10:33:39;7.80;93.90
69082;DHT22;56184;51.986;5.760;2023-02-15T10:36:23;7.80;94.30
69082;DHT22;56184;51.986;5.760;2023-02-15T10:44:10;8.20;92.20
69082;DHT22;56184;51.986;5.760;2023-02-15T10:46:43;8.40;92.40
69082;DHT22;56184;51.986;5.760;2023-02-15T11:00:19;9.00;90.60
69082;DHT22;56184;51.986;5.760;2023-02-15T11:08:09;9.40;90.00
69082;DHT22;56184;51.986;5.760;2023-02-15T11:10:42;9.70;89.90
69082;DHT22;56184;51.986;5.760;2023-02-15T11:13:19;10.10;87.00
69082;DHT22;56184;51.986;5.760;2023-02-15T11:15:55;10.40;83.60
69082;DHT22;56184;51.986;5.760;2023-02-15T11:21:29;10.60;85.20
69082;DHT22;56184;51.986;5.760;2023-02-15T11:23:59;10.80;83.80
69082;DHT22;56184;51.986;5.760;2023-02-15T11:27:12;11.20;84.50
69082;DHT22;56184;51.986;5.760;2023-02-15T11:29:37;12.00;81.50
69082;DHT22;56184;51.986;5.760;2023-02-15T11:32:18;12.20;79.50
69082;DHT22;56184;51.986;5.760;2023-02-15T11:37:40;12.60;80.50
69082;DHT22;56184;51.986;5.760;2023-02-15T11:40:33;13.00;78.70
69082;DHT22;56184;51.986;5.760;2023-02-15T11:43:04;12.70;78.80
69082;DHT22;56184;51.986;5.760;2023-02-15T11:45:32;13.00;78.60
69082;DHT22;56184;51.986;5.760;2023-02-15T11:48:00;13.30;80.90
69082;DHT22;56184;51.986;5.760;2023-02-15T11:50:31;13.20;78.10
69082;DHT22;56184;51.986;5.760;2023-02-15T11:53:18;13.20;79.30
69082;DHT22;56184;51.986;5.760;2023-02-15T11:55:48;13.00;77.70
69082;DHT22;56184;51.986;5.760;2023-02-15T12:01:11;13.50;83.70
69082;DHT22;56184;51.986;5.760;2023-02-15T12:03:45;13.50;82.10
69082;DHT22;56184;51.986;5.760;2023-02-15T12:06:17;13.60;79.00
69082;DHT22;56184;51.986;5.760;2023-02-15T12:11:39;13.90;79.70
69082;DHT22;56184;51.986;5.760;2023-02-15T12:14:11;14.30;80.60
69082;DHT22;56184;51.986;5.760;2023-02-15T12:19:36;14.60;78.10
69082;DHT22;56184;51.986;5.760;2023-02-15T12:22:04;14.80;79.30
69082;DHT22;56184;51.986;5.760;2023-02-15T12:24:32;15.30;76.50
69082;DHT22;56184;51.986;5.760;2023-02-15T12:27:03;15.90;73.60
69082;DHT22;56184;51.986;5.760;2023-02-15T12:29:41;16.00;76.00
69082;DHT22;56184;51.986;5.760;2023-02-15T12:32:30;16.10;75.30
69082;DHT22;56184;51.986;5.760;2023-02-15T12:35:08;16.10;78.10
69082;DHT22;56184;51.986;5.760;2023-02-15T12:37:35;16.20;75.50
69082;DHT22;56184;51.986;5.760;2023-02-15T12:40:18;16.40;75.00
69082;DHT22;56184;51.986;5.760;2023-02-15T12:42:44;16.30;77.30
69082;DHT22;56184;51.986;5.760;2023-02-15T12:45:31;16.10;74.60
69082;DHT22;56184;51.986;5.760;2023-02-15T12:50:35;15.90;77.10
69082;DHT22;56184;51.986;5.760;2023-02-15T12:53:21;16.00;73.90
69082;DHT22;56184;51.986;5.760;2023-02-15T12:56:09;16.50;73.00
69082;DHT22;56184;51.986;5.760;2023-02-15T12:58:40;16.50;71.20
69082;DHT22;56184;51.986;5.760;2023-02-15T13:03:35;16.40;75.60
69082;DHT22;56184;51.986;5.760;2023-02-15T13:06:03;16.30;71.30
69082;DHT22;56184;51.986;5.760;2023-02-15T13:08:35;16.50;76.50
69082;DHT22;56184;51.986;5.760;2023-02-15T13:11:08;16.60;74.70
69082;DHT22;56184;51.986;5.760;2023-02-15T13:16:41;16.70;72.30
69082;DHT22;56184;51.986;5.760;2023-02-15T13:19:34;16.50;71.00
69082;DHT22;56184;51.986;5.760;2023-02-15T13:22:22;16.20;74.90
69082;DHT22;56184;51.986;5.760;2023-02-15T13:24:58;16.00;73.40
69082;DHT22;56184;51.986;5.760;2023-02-15T13:27:32;15.90;75.10
69082;DHT22;56184;51.986;5.760;2023-02-15T13:30:02;16.00;73.90
69082;DHT22;56184;51.986;5.760;2023-02-15T13:32:33;16.00;74.90
69082;DHT22;56184;51.986;5.760;2023-02-15T13:35:02;16.20;78.60
69082;DHT22;56184;51.986;5.760;2023-02-15T13:42:54;16.70;71.00
69082;DHT22;56184;51.986;5.760;2023-02-15T14:02:21;18.00;64.80
69082;DHT22;56184;51.986;5.760;2023-02-15T14:05:14;17.80;66.10
69082;DHT22;56184;51.986;5.760;2023-02-15T14:10:59;17.00;66.50
69082;DHT22;56184;51.986;5.760;2023-02-15T14:16:08;16.70;72.10
69082;DHT22;56184;51.986;5.760;2023-02-15T14:21:41;16.00;69.40
69082;DHT22;56184;51.986;5.760;2023-02-15T14:24:23;16.10;69.40
69082;DHT22;56184;51.986;5.760;2023-02-15T14:29:52;16.20;65.60
69082;DHT22;56184;51.986;5.760;2023-02-15T14:32:42;16.40;66.80
69082;DHT22;56184;51.986;5.760;2023-02-15T14:35:16;16.80;65.70
69082;DHT22;56184;51.986;5.760;2023-02-15T14:40:49;17.20;65.30
69082;DHT22;56184;51.986;5.760;2023-02-15T14:46:30;16.90;63.30
69082;DHT22;56184;51.986;5.760;2023-02-15T14:49:11;16.70;66.10
69082;DHT22;56184;51.986;5.760;2023-02-15T14:59:26;16.30;65.60
69082;DHT22;56184;51.986;5.760;2023-02-15T15:02:09;16.20;66.10
69082;DHT22;56184;51.986;5.760;2023-02-15T15:04:39;15.90;65.80
69082;DHT22;56184;51.986;5.760;2023-02-15T15:07:22;15.70;68.00
69082;DHT22;56184;51.986;5.760;2023-02-15T15:10:06;15.50;68.00
69082;DHT22;56184;51.986;5.760;2023-02-15T15:15:12;15.20;69.40
69082;DHT22;56184;51.986;5.760;2023-02-15T15:22:42;14.80;73.00
69082;DHT22;56184;51.986;5.760;2023-02-15T15:25:50;14.60;73.30
69082;DHT22;56184;51.986;5.760;2023-02-15T15:40:13;14.00;75.00
69082;DHT22;56184;51.986;5.760;2023-02-15T15:45:46;13.80;77.70
69082;DHT22;56184;51.986;5.760;2023-02-15T15:48:29;13.70;76.50
69082;DHT22;56184;51.986;5.760;2023-02-15T15:53:37;13.60;78.80
69082;DHT22;56184;51.986;5.760;2023-02-15T15:56:07;13.50;77.80
69082;DHT22;56184;51.986;5.760;2023-02-15T15:58:35;13.40;77.30
69082;DHT22;56184;51.986;5.760;2023-02-15T16:01:08;13.30;77.50
69082;DHT22;56184;51.986;5.760;2023-02-15T16:03:34;13.20;77.80
69082;DHT22;56184;51.986;5.760;2023-02-15T16:06:00;13.10;76.00
69082;DHT22;56184;51.986;5.760;2023-02-15T16:08:37;13.10;77.90
69082;DHT22;56184;51.986;5.760;2023-02-15T16:11:30;12.90;77.60
69082;DHT22;56184;51.986;5.760;2023-02-15T16:13:56;12.80;78.30
69082;DHT22;56184;51.986;5.760;2023-02-15T16:16:24;12.70;78.50
69082;DHT22;56184;51.986;5.760;2023-02-15T16:18:51;12.70;78.10
69082;DHT22;56184;51.986;5.760;2023-02-15T16:21:21;12.60;78.90
69082;DHT22;56184;51.986;5.760;2023-02-15T16:26:48;12.40;79.50
69082;DHT22;56184;51.986;5.760;2023-02-15T16:29:27;12.30;81.20
69082;DHT22;56184;51.986;5.760;2023-02-15T16:32:14;12.20;81.00
69082;DHT22;56184;51.986;5.760;2023-02-15T16:34:51;12.10;81.70
69082;DHT22;56184;51.986;5.760;2023-02-15T16:37:19;12.00;80.90
69082;DHT22;56184;51.986;5.760;2023-02-15T16:39:47;12.00;81.70
69082;DHT22;56184;51.986;5.760;2023-02-15T16:42:17;11.90;80.80
69082;DHT22;56184;51.986;5.760;2023-02-15T16:44:45;11.80;81.20
69082;DHT22;56184;51.986;5.760;2023-02-15T16:47:18;11.70;81.90
69082;DHT22;56184;51.986;5.760;2023-02-15T16:49:47;11.60;82.40
69082;DHT22;56184;51.986;5.760;2023-02-15T16:52:19;11.50;81.20
69082;DHT22;56184;51.986;5.760;2023-02-15T16:54:46;11.40;80.90
69082;DHT22;56184;51.986;5.760;2023-02-15T16:57:21;11.40;83.00
69082;DHT22;56184;51.986;5.760;2023-02-15T16:59:52;11.40;83.10
69082;DHT22;56184;51.986;5.760;2023-02-15T17:02:30;11.30;81.80
69082;DHT22;56184;51.986;5.760;2023-02-15T17:07:34;11.10;82.90
69082;DHT22;56184;51.986;5.760;2023-02-15T17:13:01;10.90;81.20
69082;DHT22;56184;51.986;5.760;2023-02-15T17:15:34;10.90;84.90
69082;DHT22;56184;51.986;5.760;2023-02-15T17:20:40;10.80;84.10
69082;DHT22;56184;51.986;5.760;2023-02-15T17:23:40;10.70;84.30
69082;DHT22;56184;51.986;5.760;2023-02-15T17:26:15;10.70;84.70
69082;DHT22;56184;51.986;5.760;2023-02-15T17:28:59;10.50;84.60
69082;DHT22;56184;51.986;5.760;2023-02-15T17:31:30;10.50;85.30
69082;DHT22;56184;51.986;5.760;2023-02-15T17:33:57;10.40;85.40
69082;DHT22;56184;51.986;5.760;2023-02-15T17:36:28;10.30;84.60
69082;DHT22;56184;51.986;5.760;2023-02-15T17:41:31;10.20;85.60
69082;DHT22;56184;51.986;5.760;2023-02-15T17:43:57;10.20;86.00
69082;DHT22;56184;51.986;5.760;2023-02-15T17:46:23;10.10;86.30
69082;DHT22;56184;51.986;5.760;2023-02-15T17:48:51;10.10;85.90
69082;DHT22;56184;51.986;5.760;2023-02-15T17:51:18;10.00;85.70
69082;DHT22;56184;51.986;5.760;2023-02-15T17:53:45;10.00;86.90
69082;DHT22;56184;51.986;5.760;2023-02-15T17:56:29;9.90;87.80
69082;DHT22;56184;51.986;5.760;2023-02-15T17:58:55;9.80;86.90
69082;DHT22;56184;51.986;5.760;2023-02-15T18:01:21;9.70;86.80
69082;DHT22;56184;51.986;5.760;2023-02-15T18:04:10;9.70;88.50
69082;DHT22;56184;51.986;5.760;2023-02-15T18:06:55;9.60;87.60
69082;DHT22;56184;51.986;5.760;2023-02-15T18:09:39;9.60;88.30
69082;DHT22;56184;51.986;5.760;2023-02-15T18:12:33;9.60;88.50
69082;DHT22;56184;51.986;5.760;2023-02-15T18:15:01;9.60;88.80
69082;DHT22;56184;51.986;5.760;2023-02-15T18:17:39;9.50;88.40
69082;DHT22;56184;51.986;5.760;2023-02-15T18:20:19;9.40;89.70
69082;DHT22;56184;51.986;5.760;2023-02-15T18:22:45;9.30;90.30
69082;DHT22;56184;51.986;5.760;2023-02-15T18:25:16;9.30;90.50
69082;DHT22;56184;51.986;5.760;2023-02-15T18:27:42;9.20;90.30
69082;DHT22;56184;51.986;5.760;2023-02-15T18:30:13;9.20;89.20
69082;DHT22;56184;51.986;5.760;2023-02-15T18:32:40;9.20;90.00
69082;DHT22;56184;51.986;5.760;2023-02-15T18:35:06;9.20;89.90
69082;DHT22;56184;51.986;5.760;2023-02-15T18:37:32;9.10;89.40
69082;DHT22;56184;51.986;5.760;2023-02-15T18:39:59;9.10;89.60
69082;DHT22;56184;51.986;5.760;2023-02-15T18:42:28;9.00;90.00
69082;DHT22;56184;51.986;5.760;2023-02-15T18:45:00;9.00;90.50
69082;DHT22;56184;51.986;5.760;2023-02-15T18:49:54;9.00;90.10
69082;DHT22;56184;51.986;5.760;2023-02-15T18:52:25;9.00;90.80
69082;DHT22;56184;51.986;5.760;2023-02-15T18:54:56;8.90;90.80
69082;DHT22;56184;51.986;5.760;2023-02-15T18:57:22;8.80;91.10
69082;DHT22;56184;51.986;5.760;2023-02-15T18:59:48;8.80;90.90
69082;DHT22;56184;51.986;5.760;2023-02-15T19:02:15;8.80;91.20
69082;DHT22;56184;51.986;5.760;2023-02-15T19:04:42;8.70;91.30
69082;DHT22;56184;51.986;5.760;2023-02-15T19:07:25;8.70;91.10
69082;DHT22;56184;51.986;5.760;2023-02-15T19:09:57;8.60;90.90
69082;DHT22;56184;51.986;5.760;2023-02-15T19:12:23;8.60;91.00
69082;DHT22;56184;51.986;5.760;2023-02-15T19:14:49;8.60;91.00
69082;DHT22;56184;51.986;5.760;2023-02-15T19:17:20;8.50;91.00
69082;DHT22;56184;51.986;5.760;2023-02-15T19:19:46;8.50;91.20